الصفحة الرئيسية
METAR-TAF:

METAR-TAF

مطار :

Nakhon Si Thammarat, تايلاند

دائرة عرض: 8-32-22N, خط طول: 99-56-41E, ارتفاع: 4 متر

مراقبة الطقس الحالي

تاريخ ووقت الإصدار 8ساعات و 36 دقيقة قبل الساعة 13:00UTC
ريح 5 عقدة من الشمال
درجة الحرارة 27°درجة مئوية
الرطوبة 89%
ضغط 1007 hPa
الرؤية: 9000 متر
غيوم قليلة على ارتفاع 1800 قدم
غيوم متفرقة على ارتفاع 2200 قدم

METAR: VTSF 021300Z 35005KT 9000 FEW018 SCT022 27/25 Q1007 NOSIG

زمن: 04:36 (21:36 UTC)

توقعات

تاريخ ووقت الإصدار 4ساعات و 36 دقيقة قبل الساعة 17:00UTC
التوقعات صالحة من02 الساعة 18 UTC إلى 03 الساعة 18 UTC
ريح 5 عقدة من الجنوب
الرؤية 10 كم أو أكثر
غيوم قليلة على ارتفاع 2000 قدم
غيوم متفرقة على ارتفاع 10000 قدم
مؤقت
من 03 الساعة 07 UTC إلى 03 الساعة 12 UTC
ريح 10 عقدةمن اتجاهات متغيرة تتزايد حتى 20 عقدة
الرؤية: 5000 متر
غيوم قليلة على ارتفاع 1600 قدم, مزنة ركامية.
غيوم متفرقة على ارتفاع 1800 قدم
غيوم مفككة على ارتفاع 10000 قدم
عاصفة رعدية, مطر

TAF: VTSF 021700Z 0218/0318 19005KT 9999 FEW020 SCT100 TEMPO 0307/0312 VRB10G20KT 5000 TSRA FEW016CB SCT018 BKN100

أرصاد الطقس والتوقعات من أكثر من 4000 مطار (تقارير الطقس للمطار METAR والتنبؤ بالطقس بالمطارTAF).

المحطات المتاحة هي النقط الصفراء والحمراء على الخريطة.

حرك المؤشر فوق النقطة لمعرفة اسم المحطة.

ثم انقر لمعرفة أرصاد وتوقعات الطقس.

لتغيير الخارطة: اضغط على الأزرار الخضراء مع رمز الصليب الأسود للتكبير. على الزر الأخضر مع شرطة للتصغير، أو على الأسهم الخضراء للخرائط المجاورة.


METAR-TAF: